createdAt,value
2023-03-13T00:00:12.632Z,14.40
2023-03-13T00:01:38.867Z,14.43
2023-03-13T00:02:40.729Z,14.40
2023-03-13T00:03:42.972Z,14.42
2023-03-13T00:04:44.776Z,13.78
2023-03-13T00:05:46.684Z,14.13
2023-03-13T00:06:48.709Z,14.05
2023-03-13T00:07:50.678Z,14.12
2023-03-13T00:08:55.017Z,13.98
2023-03-13T00:09:56.874Z,14.10
2023-03-13T00:11:02.962Z,13.63
2023-03-13T00:12:05.081Z,13.73
2023-03-13T00:13:07.754Z,13.45
2023-03-13T00:14:09.951Z,13.75
2023-03-13T00:15:11.822Z,12.90
2023-03-13T00:16:15.999Z,13.60
2023-03-13T00:17:17.881Z,12.90
2023-03-13T00:18:21.170Z,13.12
2023-03-13T00:19:23.054Z,13.77
2023-03-13T00:20:24.982Z,14.03
2023-03-13T00:21:28.947Z,13.73
2023-03-13T00:22:30.771Z,13.27
2023-03-13T00:23:33.618Z,13.43
2023-03-13T00:24:35.480Z,13.60
2023-03-13T00:25:37.463Z,13.02
2023-03-13T00:26:39.313Z,13.10
2023-03-13T00:27:41.413Z,12.73
2023-03-13T00:28:45.100Z,13.37
2023-03-13T00:29:47.818Z,14.27
2023-03-13T00:30:49.737Z,13.90
2023-03-13T00:31:51.664Z,14.32
2023-03-13T00:32:53.601Z,14.50
2023-03-13T00:33:59.046Z,14.45
2023-03-13T00:35:00.905Z,14.07
2023-03-13T00:36:11.894Z,13.85
2023-03-13T00:37:14.622Z,14.38
2023-03-13T00:38:16.577Z,14.10
2023-03-13T00:39:18.489Z,13.93
2023-03-13T00:40:20.385Z,14.20
2023-03-13T00:41:24.615Z,15.13
2023-03-13T00:42:26.657Z,13.75
2023-03-13T00:43:28.980Z,13.92
2023-03-13T00:44:30.834Z,14.27
2023-03-13T00:45:32.610Z,13.57
2023-03-13T00:46:34.702Z,14.32
2023-03-13T00:47:36.610Z,14.72
2023-03-13T00:48:39.169Z,13.98
2023-03-13T00:49:41.010Z,14.08
2023-03-13T00:50:43.130Z,13.85
2023-03-13T00:51:45.012Z,13.82
2023-03-13T00:52:46.820Z,13.70
2023-03-13T00:53:48.925Z,13.47
2023-03-13T00:54:51.357Z,13.10
2023-03-13T00:55:59.122Z,13.72
2023-03-13T00:57:00.948Z,12.87
2023-03-13T00:58:03.373Z,13.02
2023-03-13T00:59:05.198Z,13.45
2023-03-13T01:00:07.946Z,12.93
2023-03-13T01:01:21.524Z,13.55
2023-03-13T01:02:24.123Z,13.62
2023-03-13T01:03:26.884Z,13.92
2023-03-13T01:04:28.891Z,13.92
2023-03-13T01:05:30.734Z,13.67
2023-03-13T01:06:35.397Z,14.30
2023-03-13T01:07:37.236Z,13.78
2023-03-13T01:08:39.354Z,13.22
2023-03-13T01:09:41.140Z,13.07
2023-03-13T01:10:43.054Z,13.73
2023-03-13T01:11:46.098Z,13.93
2023-03-13T01:12:47.888Z,13.12
2023-03-13T01:13:50.590Z,13.60
2023-03-13T01:14:52.604Z,13.63
2023-03-13T01:15:54.558Z,14.05
2023-03-13T01:16:56.502Z,13.38
2023-03-13T01:17:58.357Z,13.07
2023-03-13T01:19:02.830Z,13.55
2023-03-13T01:20:05.620Z,13.47
2023-03-13T01:21:07.967Z,13.38
2023-03-13T01:22:12.667Z,13.58
2023-03-13T01:23:15.742Z,13.53
2023-03-13T01:24:19.209Z,13.78
2023-03-13T01:25:21.053Z,14.18
2023-03-13T01:26:23.448Z,13.48
2023-03-13T01:27:25.362Z,13.60
2023-03-13T01:28:27.370Z,13.55
2023-03-13T01:29:29.379Z,12.80
2023-03-13T01:30:31.359Z,12.70
2023-03-13T01:31:35.636Z,14.10
2023-03-13T01:32:37.591Z,14.00
2023-03-13T01:33:39.625Z,13.30
2023-03-13T01:34:41.508Z,13.15
2023-03-13T01:35:43.515Z,12.90
2023-03-13T01:36:46.789Z,13.25
2023-03-13T01:37:48.681Z,12.58
2023-03-13T01:38:53.564Z,12.47
2023-03-13T01:39:55.445Z,12.10
2023-03-13T01:40:57.208Z,12.33
2023-03-13T01:41:59.223Z,11.62
2023-03-13T01:43:01.041Z,11.97
2023-03-13T01:44:03.224Z,11.82
2023-03-13T01:45:05.359Z,11.97
2023-03-13T01:46:21.535Z,11.55
2023-03-13T01:47:23.966Z,12.17
2023-03-13T01:48:31.413Z,12.52
2023-03-13T01:49:34.679Z,11.55
2023-03-13T01:50:36.565Z,11.63
2023-03-13T01:51:42.478Z,12.37
2023-03-13T01:52:44.283Z,11.22
2023-03-13T01:53:49.955Z,11.60
2023-03-13T01:55:03.765Z,11.72
2023-03-13T01:56:09.283Z,12.23
2023-03-13T01:57:33.659Z,11.30
2023-03-13T01:58:36.124Z,11.05
2023-03-13T01:59:46.458Z,11.52
2023-03-13T02:00:48.853Z,11.27
2023-03-13T02:01:53.568Z,11.43
2023-03-13T02:02:57.887Z,11.78
2023-03-13T02:03:59.935Z,11.47
2023-03-13T02:05:04.159Z,11.58
2023-03-13T02:06:07.890Z,11.82
2023-03-13T02:07:17.513Z,11.97
2023-03-13T02:08:33.483Z,11.93
2023-03-13T02:09:36.546Z,12.30
2023-03-13T02:10:43.292Z,12.12
2023-03-13T02:11:57.041Z,11.12
2023-03-13T02:13:01.166Z,12.13
2023-03-13T02:14:04.841Z,11.68
2023-03-13T02:15:13.241Z,11.47
2023-03-13T02:16:16.339Z,12.78
2023-03-13T02:17:18.571Z,12.15
2023-03-13T02:18:21.702Z,11.85
2023-03-13T02:19:49.199Z,11.77
2023-03-13T02:20:54.633Z,11.57
2023-03-13T02:22:05.453Z,12.00
2023-03-13T02:23:20.557Z,12.13
2023-03-13T02:24:59.138Z,12.55
2023-03-13T02:26:01.344Z,11.60
2023-03-13T02:27:03.831Z,11.63
2023-03-13T02:28:08.887Z,11.40
2023-03-13T02:29:18.266Z,11.37
2023-03-13T02:30:20.589Z,11.33
2023-03-13T02:31:22.528Z,11.60
2023-03-13T02:32:26.535Z,11.37
2023-03-13T02:33:31.906Z,10.95
2023-03-13T02:34:36.054Z,10.93
2023-03-13T02:35:38.024Z,11.70
2023-03-13T02:36:40.617Z,11.00
2023-03-13T02:37:46.734Z,10.58
2023-03-13T02:39:03.404Z,11.12
2023-03-13T02:40:12.292Z,11.35
2023-03-13T02:41:15.332Z,11.05
2023-03-13T02:42:19.355Z,11.38
2023-03-13T02:43:31.011Z,11.40
2023-03-13T02:44:38.334Z,11.47
2023-03-13T02:45:40.237Z,11.10
2023-03-13T02:46:52.434Z,11.60
2023-03-13T02:47:54.453Z,11.57
2023-03-13T02:48:57.371Z,11.30
2023-03-13T02:49:59.356Z,10.57
2023-03-13T02:51:04.344Z,10.40
2023-03-13T02:52:28.382Z,10.68
2023-03-13T02:53:30.758Z,11.48
2023-03-13T02:54:38.239Z,11.63
2023-03-13T02:55:41.770Z,11.35
2023-03-13T02:56:49.188Z,11.72
2023-03-13T02:57:51.618Z,11.63
2023-03-13T02:58:53.624Z,11.82
2023-03-13T02:59:55.527Z,11.95
2023-03-13T03:00:57.367Z,11.12
2023-03-13T03:01:59.378Z,11.45
2023-03-13T03:03:01.208Z,11.65
2023-03-13T03:04:03.108Z,11.88
2023-03-13T03:05:05.851Z,12.77
2023-03-13T03:06:07.819Z,12.43
2023-03-13T03:07:09.726Z,13.10
2023-03-13T03:08:12.236Z,13.07
2023-03-13T03:09:15.292Z,14.83
2023-03-13T03:10:18.325Z,14.55
2023-03-13T03:11:20.299Z,15.75
2023-03-13T03:12:22.310Z,16.68
2023-03-13T03:13:24.109Z,18.73
2023-03-13T03:14:25.893Z,18.68
2023-03-13T03:15:27.737Z,19.35
2023-03-13T03:16:29.829Z,20.73
2023-03-13T03:17:31.656Z,20.58
2023-03-13T03:18:34.654Z,19.78
2023-03-13T03:19:36.677Z,18.58
2023-03-13T03:20:38.487Z,17.93
2023-03-13T03:21:40.657Z,16.30
2023-03-13T03:22:42.413Z,15.62
2023-03-13T03:23:44.264Z,15.07
2023-03-13T03:24:46.083Z,14.53
2023-03-13T03:25:47.933Z,14.75
2023-03-13T03:26:49.874Z,13.50
2023-03-13T03:27:51.973Z,13.67
2023-03-13T03:28:54.032Z,13.22
2023-03-13T03:29:55.826Z,12.67
2023-03-13T03:30:57.680Z,12.52
2023-03-13T03:31:59.699Z,12.15
2023-03-13T03:33:03.596Z,12.17
2023-03-13T03:34:05.502Z,12.12
2023-03-13T03:35:07.587Z,12.23
2023-03-13T03:36:12.593Z,11.78
2023-03-13T03:37:14.840Z,12.67
2023-03-13T03:38:17.175Z,12.18
2023-03-13T03:39:19.008Z,11.63
2023-03-13T03:40:21.496Z,10.88
2023-03-13T03:41:23.367Z,12.13
2023-03-13T03:42:25.188Z,12.00
2023-03-13T03:43:26.992Z,12.03
2023-03-13T03:44:28.867Z,12.85
2023-03-13T03:45:30.748Z,11.82
2023-03-13T03:46:32.563Z,12.73
2023-03-13T03:47:34.564Z,13.18
2023-03-13T03:48:37.707Z,12.60
2023-03-13T03:49:39.733Z,12.73
2023-03-13T03:50:41.652Z,12.17
2023-03-13T03:51:43.588Z,12.50
2023-03-13T03:52:45.502Z,12.58
2023-03-13T03:53:47.258Z,12.32
2023-03-13T03:54:49.145Z,12.47
2023-03-13T03:55:51.018Z,12.18
2023-03-13T03:56:52.843Z,11.57
2023-03-13T03:57:54.797Z,12.75
2023-03-13T03:58:56.655Z,12.63
2023-03-13T03:59:58.515Z,12.48
2023-03-13T04:01:00.661Z,11.68
2023-03-13T04:02:03.124Z,12.48
2023-03-13T04:03:05.288Z,11.87
2023-03-13T04:04:07.252Z,12.67
2023-03-13T04:05:09.056Z,12.38
2023-03-13T04:06:10.991Z,12.43
2023-03-13T04:07:13.106Z,12.35
2023-03-13T04:08:15.604Z,13.28
2023-03-13T04:09:17.518Z,13.30
2023-03-13T04:10:19.473Z,13.42
2023-03-13T04:11:21.788Z,13.67
2023-03-13T04:12:23.588Z,13.93
2023-03-13T04:13:25.376Z,13.82
2023-03-13T04:14:27.221Z,13.37
2023-03-13T04:15:29.190Z,12.92
2023-03-13T04:16:31.141Z,13.33
2023-03-13T04:17:33.593Z,13.07
2023-03-13T04:18:36.378Z,13.05
2023-03-13T04:19:38.559Z,14.70
2023-03-13T04:20:40.590Z,14.68
2023-03-13T04:21:42.548Z,16.00
2023-03-13T04:22:44.720Z,13.72
2023-03-13T04:23:46.475Z,14.07
2023-03-13T04:24:48.780Z,14.05
2023-03-13T04:25:51.877Z,14.32
2023-03-13T04:26:53.766Z,15.37
2023-03-13T04:27:55.656Z,15.05
2023-03-13T04:28:57.710Z,14.53
2023-03-13T04:29:59.753Z,16.38
2023-03-13T04:31:01.754Z,15.95
2023-03-13T04:32:03.777Z,16.00
2023-03-13T04:33:05.621Z,16.20
2023-03-13T04:34:07.382Z,15.93
2023-03-13T04:35:09.299Z,14.12
2023-03-13T04:36:11.244Z,13.58
2023-03-13T04:37:13.113Z,13.70
2023-03-13T04:38:15.113Z,13.97
2023-03-13T04:39:17.423Z,14.17
2023-03-13T04:40:19.213Z,14.77
2023-03-13T04:41:21.097Z,14.60
2023-03-13T04:42:23.697Z,13.73
2023-03-13T04:43:25.554Z,12.80
2023-03-13T04:44:27.364Z,13.12
2023-03-13T04:45:29.170Z,12.68
2023-03-13T04:46:31.069Z,12.40
2023-03-13T04:47:33.307Z,12.07
2023-03-13T04:48:35.226Z,12.03
2023-03-13T04:49:36.976Z,12.47
2023-03-13T04:50:38.809Z,11.93
2023-03-13T04:51:42.018Z,12.27
2023-03-13T04:52:43.841Z,11.57
2023-03-13T04:53:45.721Z,10.93
2023-03-13T04:54:47.484Z,11.67
2023-03-13T04:55:50.237Z,11.60
2023-03-13T04:56:52.048Z,11.43
2023-03-13T04:57:53.849Z,11.77
2023-03-13T04:58:55.851Z,11.07
2023-03-13T04:59:58.434Z,10.87
2023-03-13T05:01:00.306Z,12.07
2023-03-13T05:02:02.238Z,11.72
2023-03-13T05:03:04.050Z,11.22
2023-03-13T05:04:06.145Z,11.52
2023-03-13T05:05:08.195Z,11.90
2023-03-13T05:06:10.042Z,11.15
2023-03-13T05:07:11.952Z,11.85
2023-03-13T05:08:14.248Z,12.55
2023-03-13T05:09:16.111Z,13.43
2023-03-13T05:10:17.977Z,13.70
2023-03-13T05:11:19.945Z,13.92
2023-03-13T05:12:21.910Z,15.02
2023-03-13T05:13:23.724Z,14.87
2023-03-13T05:14:25.662Z,13.52
2023-03-13T05:15:27.532Z,13.15
2023-03-13T05:16:29.347Z,13.60
2023-03-13T05:17:31.309Z,12.72
2023-03-13T05:18:34.594Z,12.98
2023-03-13T05:19:36.810Z,12.02
2023-03-13T05:20:38.653Z,12.43
2023-03-13T05:21:40.639Z,13.02
2023-03-13T05:22:42.483Z,12.67
2023-03-13T05:23:44.365Z,13.40
2023-03-13T05:24:46.257Z,14.92
2023-03-13T05:25:48.146Z,16.57
2023-03-13T05:26:50.057Z,15.88
2023-03-13T05:27:51.868Z,16.57
2023-03-13T05:28:54.413Z,16.50
2023-03-13T05:29:56.437Z,16.83
2023-03-13T05:30:58.285Z,16.25
2023-03-13T05:32:00.133Z,15.65
2023-03-13T05:33:02.072Z,15.40
2023-03-13T05:34:03.903Z,14.68
2023-03-13T05:35:05.865Z,15.10
2023-03-13T05:36:08.205Z,15.78
2023-03-13T05:37:10.242Z,15.52
2023-03-13T05:38:12.996Z,15.57
2023-03-13T05:39:14.914Z,15.30
2023-03-13T05:40:16.959Z,14.45
2023-03-13T05:41:19.085Z,14.73
2023-03-13T05:42:20.940Z,14.03
2023-03-13T05:43:22.859Z,14.27
2023-03-13T05:44:24.707Z,14.08
2023-03-13T05:45:26.538Z,14.73
2023-03-13T05:46:28.437Z,14.20
2023-03-13T05:47:30.340Z,14.62
2023-03-13T05:48:32.181Z,13.72
2023-03-13T05:49:34.045Z,13.90
2023-03-13T05:50:36.097Z,13.10
2023-03-13T05:51:38.242Z,13.30
2023-03-13T05:52:39.991Z,13.07
2023-03-13T05:53:41.973Z,12.92
2023-03-13T05:54:43.858Z,12.58
2023-03-13T05:55:45.728Z,13.03
2023-03-13T05:56:50.278Z,12.87
2023-03-13T05:57:52.221Z,13.52
2023-03-13T05:58:56.924Z,13.72
2023-03-13T05:59:59.621Z,13.93
2023-03-13T06:01:07.654Z,13.88
2023-03-13T06:02:09.660Z,13.87
2023-03-13T06:03:13.812Z,14.18
2023-03-13T06:04:16.155Z,13.67
2023-03-13T06:05:18.266Z,14.90
2023-03-13T06:06:20.382Z,13.20
2023-03-13T06:07:22.525Z,13.27
2023-03-13T06:08:24.532Z,14.03
2023-03-13T06:09:26.357Z,13.80
2023-03-13T06:10:28.442Z,14.62
2023-03-13T06:11:30.249Z,14.47
2023-03-13T06:12:32.095Z,14.05
2023-03-13T06:13:33.967Z,12.78
2023-03-13T06:14:35.796Z,13.23
2023-03-13T06:15:37.601Z,13.70
2023-03-13T06:16:39.469Z,13.02
2023-03-13T06:17:41.587Z,13.13
2023-03-13T06:18:43.438Z,13.07
2023-03-13T06:19:46.808Z,13.55
2023-03-13T06:20:58.182Z,13.50
2023-03-13T06:22:00.013Z,12.88
2023-03-13T06:23:01.881Z,13.52
2023-03-13T06:24:03.791Z,12.58
2023-03-13T06:25:06.118Z,13.15
2023-03-13T06:26:07.986Z,13.20
2023-03-13T06:27:10.200Z,13.02
2023-03-13T06:28:12.080Z,12.75
2023-03-13T06:29:13.986Z,13.67
2023-03-13T06:30:15.895Z,13.37
2023-03-13T06:31:18.422Z,12.92
2023-03-13T06:32:20.421Z,12.90
2023-03-13T06:33:22.342Z,13.60
2023-03-13T06:34:24.230Z,13.13
2023-03-13T06:35:26.140Z,12.93
2023-03-13T06:36:28.087Z,13.50
2023-03-13T06:37:30.341Z,12.95
2023-03-13T06:38:33.417Z,12.78
2023-03-13T06:39:35.357Z,13.02
2023-03-13T06:40:37.846Z,13.68
2023-03-13T06:41:39.710Z,14.10
2023-03-13T06:42:41.621Z,13.88
2023-03-13T06:43:43.503Z,13.92
2023-03-13T06:44:45.411Z,14.02
2023-03-13T06:45:47.398Z,14.30
2023-03-13T06:46:49.403Z,14.63
2023-03-13T06:47:52.260Z,14.63
2023-03-13T06:48:55.648Z,14.43
2023-03-13T06:49:57.683Z,13.88
2023-03-13T06:50:59.541Z,13.48
2023-03-13T06:52:01.410Z,13.00
2023-03-13T06:53:03.202Z,12.52
2023-03-13T06:54:05.014Z,13.65
2023-03-13T06:55:08.431Z,12.07
2023-03-13T06:56:10.980Z,11.85
2023-03-13T06:57:12.992Z,13.12
2023-03-13T06:58:29.097Z,12.75
2023-03-13T06:59:32.761Z,12.85
2023-03-13T07:00:34.764Z,12.92
2023-03-13T07:01:36.754Z,11.47
2023-03-13T07:02:38.703Z,11.42
2023-03-13T07:03:41.533Z,11.78
2023-03-13T07:04:45.189Z,12.27
2023-03-13T07:05:47.116Z,12.47
2023-03-13T07:06:49.257Z,11.93
2023-03-13T07:07:51.164Z,12.15
2023-03-13T07:08:53.903Z,12.63
2023-03-13T07:09:55.775Z,12.67
2023-03-13T07:11:06.805Z,13.10
2023-03-13T07:12:08.939Z,12.40
2023-03-13T07:13:10.762Z,12.78
2023-03-13T07:14:16.858Z,11.78
2023-03-13T07:15:19.156Z,11.75
2023-03-13T07:16:21.038Z,11.93
2023-03-13T07:17:23.019Z,11.78
2023-03-13T07:18:25.017Z,12.38
2023-03-13T07:19:27.501Z,12.28
2023-03-13T07:20:29.949Z,11.98
2023-03-13T07:21:32.136Z,11.95
2023-03-13T07:22:34.521Z,12.82
2023-03-13T07:23:36.474Z,12.20
2023-03-13T07:24:38.290Z,12.05
2023-03-13T07:25:40.198Z,12.53
2023-03-13T07:26:51.254Z,11.80
2023-03-13T07:28:01.269Z,12.33
2023-03-13T07:29:04.005Z,12.40
2023-03-13T07:30:06.563Z,12.40
2023-03-13T07:31:20.060Z,11.72
2023-03-13T07:32:22.447Z,12.12
2023-03-13T07:33:24.318Z,11.45
2023-03-13T07:34:26.364Z,12.53
2023-03-13T07:35:28.188Z,11.27
2023-03-13T07:36:30.969Z,10.98
2023-03-13T07:37:32.908Z,10.65
2023-03-13T07:38:35.456Z,10.65
2023-03-13T07:39:37.329Z,10.75
2023-03-13T07:40:39.250Z,10.78
2023-03-13T07:41:41.145Z,10.52
2023-03-13T07:42:44.051Z,10.92
2023-03-13T07:43:46.433Z,11.77
2023-03-13T07:44:48.219Z,11.42
2023-03-13T07:46:16.326Z,12.28
2023-03-13T07:47:18.370Z,12.38
2023-03-13T07:48:21.268Z,11.57
2023-03-13T07:49:23.117Z,11.37
2023-03-13T07:50:25.001Z,10.95
2023-03-13T07:51:40.604Z,11.80
2023-03-13T07:52:44.951Z,10.78
2023-03-13T07:53:49.782Z,10.72
2023-03-13T07:54:51.633Z,10.88
2023-03-13T07:55:56.252Z,10.85
2023-03-13T07:56:58.337Z,10.57
2023-03-13T07:58:00.310Z,10.15
2023-03-13T07:59:02.217Z,10.27
2023-03-13T08:00:05.981Z,10.02
2023-03-13T08:01:27.877Z,10.53
2023-03-13T08:02:31.106Z,10.62
2023-03-13T08:03:33.010Z,9.47
2023-03-13T08:04:34.830Z,9.65
2023-03-13T08:05:36.627Z,9.50
2023-03-13T08:06:39.884Z,9.48
2023-03-13T08:07:43.249Z,10.33
2023-03-13T08:08:46.241Z,9.75
2023-03-13T08:09:48.736Z,10.15
2023-03-13T08:10:50.685Z,9.92
2023-03-13T08:11:52.589Z,9.67
2023-03-13T08:12:54.387Z,9.62
2023-03-13T08:13:57.198Z,9.62
2023-03-13T08:14:59.087Z,9.92
2023-03-13T08:16:15.527Z,9.77
2023-03-13T08:17:17.325Z,9.92
2023-03-13T08:18:21.458Z,10.38
2023-03-13T08:19:23.368Z,10.10
2023-03-13T08:20:25.252Z,9.88
2023-03-13T08:21:29.151Z,10.03
2023-03-13T08:22:31.208Z,9.87
2023-03-13T08:23:33.705Z,9.45
2023-03-13T08:24:35.600Z,9.62
2023-03-13T08:25:37.349Z,9.68
2023-03-13T08:26:41.505Z,10.35
2023-03-13T08:27:43.604Z,9.95
2023-03-13T08:28:47.671Z,9.38
2023-03-13T08:29:49.543Z,9.77
2023-03-13T08:30:51.432Z,9.78
2023-03-13T08:31:53.266Z,9.53
2023-03-13T08:32:55.105Z,9.48
2023-03-13T08:33:57.025Z,10.08
2023-03-13T08:34:58.845Z,9.02
2023-03-13T08:36:09.229Z,9.15
2023-03-13T08:37:15.753Z,9.50
2023-03-13T08:38:20.556Z,9.13
2023-03-13T08:39:22.524Z,8.95
2023-03-13T08:40:24.341Z,9.32
2023-03-13T08:41:31.449Z,8.58
2023-03-13T08:42:33.302Z,9.00
2023-03-13T08:43:35.154Z,8.93
2023-03-13T08:44:37.099Z,9.02
2023-03-13T08:45:38.920Z,8.82
2023-03-13T08:46:41.170Z,9.15
2023-03-13T08:47:43.345Z,9.07
2023-03-13T08:48:48.539Z,8.95
2023-03-13T08:49:50.278Z,9.40
2023-03-13T08:51:07.460Z,9.10
2023-03-13T08:52:09.669Z,8.55
2023-03-13T08:53:11.515Z,9.22
2023-03-13T08:54:13.499Z,8.83
2023-03-13T08:55:15.433Z,8.58
2023-03-13T08:56:19.437Z,8.57
2023-03-13T08:57:21.248Z,9.13
2023-03-13T08:58:23.610Z,8.95
2023-03-13T08:59:26.508Z,8.77
2023-03-13T09:00:28.437Z,8.58
2023-03-13T09:01:33.155Z,8.53
2023-03-13T09:02:35.059Z,8.83
2023-03-13T09:03:37.897Z,9.02
2023-03-13T09:04:39.807Z,8.95
2023-03-13T09:05:55.266Z,8.78
2023-03-13T09:06:57.701Z,8.62
2023-03-13T09:07:59.625Z,8.67
2023-03-13T09:09:02.800Z,9.43
2023-03-13T09:10:05.271Z,9.38
2023-03-13T09:11:10.381Z,9.12
2023-03-13T09:12:24.564Z,9.50
2023-03-13T09:13:32.035Z,8.73
2023-03-13T09:14:36.381Z,8.60
2023-03-13T09:15:41.121Z,8.37
2023-03-13T09:16:44.956Z,9.13
2023-03-13T09:17:47.134Z,9.23
2023-03-13T09:18:49.744Z,9.23
2023-03-13T09:20:00.016Z,8.35
2023-03-13T09:21:03.438Z,8.38
2023-03-13T09:22:05.545Z,9.02
2023-03-13T09:23:07.710Z,8.42
2023-03-13T09:24:09.647Z,8.58
2023-03-13T09:25:13.157Z,8.75
2023-03-13T09:26:16.473Z,8.58
2023-03-13T09:27:23.310Z,8.48
2023-03-13T09:28:27.830Z,8.05
2023-03-13T09:29:29.966Z,8.32
2023-03-13T09:30:32.066Z,9.28
2023-03-13T09:31:34.522Z,8.25
2023-03-13T09:32:36.852Z,8.50
2023-03-13T09:33:39.402Z,8.70
2023-03-13T09:34:41.306Z,8.37
2023-03-13T09:35:44.043Z,8.35
2023-03-13T09:36:46.045Z,8.23
2023-03-13T09:37:47.969Z,8.30
2023-03-13T09:38:57.987Z,7.97
2023-03-13T09:40:01.082Z,8.65
2023-03-13T09:41:18.162Z,8.28
2023-03-13T09:42:32.405Z,8.78
2023-03-13T09:43:43.261Z,8.77
2023-03-13T09:44:55.221Z,9.12
2023-03-13T09:46:02.642Z,8.92
2023-03-13T09:47:17.411Z,9.10
2023-03-13T09:48:39.398Z,8.85
2023-03-13T09:49:45.173Z,9.13
2023-03-13T09:51:16.170Z,9.40
2023-03-13T09:52:19.596Z,8.63
2023-03-13T09:53:35.118Z,7.98
2023-03-13T09:54:49.701Z,8.08
2023-03-13T09:55:52.760Z,8.45
2023-03-13T09:57:03.601Z,8.42
2023-03-13T09:58:21.777Z,9.17
2023-03-13T09:59:38.004Z,9.58
2023-03-13T10:00:41.652Z,9.55
2023-03-13T10:01:44.645Z,8.73
2023-03-13T10:02:56.200Z,9.20
2023-03-13T10:04:13.006Z,9.48
2023-03-13T10:05:26.304Z,9.43
2023-03-13T10:06:35.324Z,8.22
2023-03-13T10:07:37.419Z,8.80
2023-03-13T10:08:39.522Z,8.78
2023-03-13T10:09:41.353Z,8.97
2023-03-13T10:10:46.684Z,8.53
2023-03-13T10:12:13.438Z,9.12
2023-03-13T10:13:23.869Z,8.62
2023-03-13T10:14:50.144Z,8.83
2023-03-13T10:15:58.468Z,8.77
2023-03-13T10:17:07.787Z,8.77
2023-03-13T10:18:21.756Z,8.92
2023-03-13T10:19:32.717Z,8.45
2023-03-13T10:20:36.210Z,8.62
2023-03-13T10:21:40.038Z,8.28
2023-03-13T10:22:46.081Z,7.93
2023-03-13T10:24:00.894Z,8.20
2023-03-13T10:25:20.262Z,8.40
2023-03-13T10:26:29.484Z,8.68
2023-03-13T10:27:31.500Z,8.40
2023-03-13T10:28:34.886Z,7.82
2023-03-13T10:29:38.373Z,8.93
2023-03-13T10:30:47.064Z,8.18
2023-03-13T10:31:57.196Z,8.03
2023-03-13T10:33:08.359Z,7.88
2023-03-13T10:34:12.966Z,8.20
2023-03-13T10:35:23.275Z,8.38
2023-03-13T10:36:25.429Z,8.12
2023-03-13T10:37:43.208Z,7.80
2023-03-13T10:38:51.458Z,7.77
2023-03-13T10:39:53.680Z,7.83
2023-03-13T10:41:01.727Z,8.00
2023-03-13T10:42:33.456Z,7.65
2023-03-13T10:43:35.426Z,7.53
2023-03-13T10:44:37.967Z,7.48
2023-03-13T10:45:39.914Z,7.12
2023-03-13T10:46:44.113Z,7.38
2023-03-13T10:47:54.143Z,7.43
2023-03-13T10:48:57.839Z,7.38
2023-03-13T10:50:00.227Z,7.32
2023-03-13T10:51:02.568Z,7.47
2023-03-13T10:52:06.548Z,6.75
2023-03-13T10:53:29.791Z,7.32
2023-03-13T10:54:37.473Z,6.95
2023-03-13T10:55:43.823Z,7.35
2023-03-13T10:56:45.818Z,7.45
2023-03-13T10:58:03.922Z,7.07
2023-03-13T10:59:21.247Z,7.28
2023-03-13T11:00:23.315Z,7.52
2023-03-13T11:01:29.133Z,7.08
2023-03-13T11:02:39.901Z,6.90
2023-03-13T11:03:43.531Z,6.92
2023-03-13T11:04:49.417Z,7.33
2023-03-13T11:05:59.414Z,7.08
2023-03-13T11:07:07.110Z,6.97
2023-03-13T11:08:28.114Z,6.98
2023-03-13T11:09:30.374Z,7.45
2023-03-13T11:10:36.991Z,6.83
2023-03-13T11:11:50.874Z,6.92
2023-03-13T11:12:54.587Z,6.53
2023-03-13T11:14:08.850Z,6.55
2023-03-13T11:15:16.960Z,6.93
2023-03-13T11:16:33.698Z,7.82
2023-03-13T11:17:35.762Z,7.18
2023-03-13T11:18:56.903Z,7.15
2023-03-13T11:20:33.348Z,7.00
2023-03-13T11:21:54.823Z,6.68
2023-03-13T11:23:21.623Z,6.47
2023-03-13T11:24:50.818Z,6.52
2023-03-13T11:26:19.639Z,6.18
2023-03-13T11:27:36.613Z,6.32
2023-03-13T11:29:01.371Z,6.02
2023-03-13T11:30:22.910Z,5.95
2023-03-13T11:31:47.624Z,6.20
2023-03-13T11:33:00.662Z,6.08
2023-03-13T11:34:31.403Z,5.87
2023-03-13T11:35:40.912Z,5.97
2023-03-13T11:37:04.257Z,6.28
2023-03-13T11:38:20.081Z,6.27
2023-03-13T11:40:00.109Z,5.88
2023-03-13T11:41:01.943Z,5.98
2023-03-13T11:42:34.856Z,6.15
2023-03-13T11:43:55.040Z,5.85
2023-03-13T11:45:03.566Z,6.18
2023-03-13T11:46:23.528Z,5.83
2023-03-13T11:47:57.211Z,5.50
2023-03-13T11:49:08.134Z,5.62
2023-03-13T11:50:15.852Z,5.52
2023-03-13T11:51:58.903Z,5.40
2023-03-13T11:53:16.224Z,5.90
2023-03-13T11:54:31.776Z,5.88
2023-03-13T11:55:46.181Z,5.70
2023-03-13T11:56:55.600Z,5.57
2023-03-13T11:58:38.850Z,5.65
2023-03-13T11:59:56.842Z,5.35
2023-03-13T12:01:01.788Z,5.43
2023-03-13T12:02:21.134Z,5.08
2023-03-13T12:03:41.535Z,4.62
2023-03-13T12:04:52.847Z,4.70
2023-03-13T12:05:57.503Z,5.43
2023-03-13T12:07:05.886Z,5.67
2023-03-13T12:08:18.476Z,5.75
2023-03-13T12:09:51.949Z,5.62
2023-03-13T12:11:06.016Z,5.33
2023-03-13T12:12:35.556Z,5.80
2023-03-13T12:14:11.440Z,5.55
2023-03-13T12:15:42.404Z,5.50
2023-03-13T12:16:54.945Z,5.83
2023-03-13T12:18:03.201Z,5.87
2023-03-13T12:19:05.910Z,5.75
2023-03-13T12:20:20.190Z,5.82
2023-03-13T12:21:42.847Z,5.90
2023-03-13T12:23:09.879Z,5.90
2023-03-13T12:24:15.325Z,6.62
2023-03-13T12:25:26.595Z,6.23
2023-03-13T12:26:43.055Z,6.42
2023-03-13T12:27:50.473Z,6.47
2023-03-13T12:29:21.131Z,6.42
2023-03-13T12:31:02.116Z,6.43
2023-03-13T12:32:25.133Z,5.90
2023-03-13T12:33:36.286Z,5.32
2023-03-13T12:34:53.078Z,5.75
2023-03-13T12:36:26.352Z,6.03
2023-03-13T12:37:48.929Z,6.13
2023-03-13T12:38:58.642Z,5.40
2023-03-13T12:40:12.659Z,5.08
2023-03-13T12:41:57.365Z,4.45
2023-03-13T12:43:11.597Z,4.22
2023-03-13T12:44:19.279Z,4.72
2023-03-13T12:45:24.308Z,4.77
2023-03-13T12:46:43.092Z,4.75
2023-03-13T12:47:56.576Z,4.82
2023-03-13T12:49:24.179Z,4.48
2023-03-13T12:50:39.182Z,4.58
2023-03-13T12:51:51.450Z,4.87
2023-03-13T12:53:08.592Z,4.53
2023-03-13T12:54:25.700Z,5.27
2023-03-13T12:55:56.435Z,5.15
2023-03-13T12:57:19.171Z,5.05
2023-03-13T12:58:42.581Z,5.62
2023-03-13T12:59:49.237Z,5.62
2023-03-13T13:00:52.162Z,5.25
2023-03-13T13:01:56.182Z,5.60
2023-03-13T13:03:20.591Z,5.67
2023-03-13T13:04:34.767Z,5.42
2023-03-13T13:05:36.747Z,5.28
2023-03-13T13:06:56.731Z,5.30
2023-03-13T13:07:58.576Z,4.97
2023-03-13T13:09:14.948Z,5.17
2023-03-13T13:10:21.796Z,5.17
2023-03-13T13:11:47.242Z,5.25
2023-03-13T13:13:13.972Z,5.40
2023-03-13T13:14:18.396Z,5.53
2023-03-13T13:15:27.925Z,4.72
2023-03-13T13:16:30.038Z,4.80
2023-03-13T13:18:10.850Z,5.08
2023-03-13T13:19:25.210Z,4.90
2023-03-13T13:20:40.582Z,5.50
2023-03-13T13:21:42.752Z,5.05
2023-03-13T13:22:46.549Z,5.13
2023-03-13T13:23:50.578Z,5.33
2023-03-13T13:24:54.065Z,5.35
2023-03-13T13:25:56.773Z,5.43
2023-03-13T13:26:58.586Z,5.65
2023-03-13T13:28:27.452Z,5.63
2023-03-13T13:29:29.324Z,5.38
2023-03-13T13:30:32.706Z,6.33
2023-03-13T13:31:52.432Z,6.67
2023-03-13T13:32:56.491Z,6.58
2023-03-13T13:33:58.290Z,5.43
2023-03-13T13:35:09.136Z,5.53
2023-03-13T13:36:10.949Z,5.63
2023-03-13T13:37:12.903Z,5.87
2023-03-13T13:38:17.456Z,6.00
2023-03-13T13:39:39.391Z,5.32
2023-03-13T13:41:02.027Z,5.17
2023-03-13T13:42:36.756Z,5.32
2023-03-13T13:43:40.907Z,5.20
2023-03-13T13:44:58.345Z,5.42
2023-03-13T13:46:25.497Z,5.42
2023-03-13T13:47:32.389Z,5.03
2023-03-13T13:48:40.114Z,4.92
2023-03-13T13:50:02.362Z,5.08
2023-03-13T13:51:18.648Z,5.13
2023-03-13T13:52:39.374Z,5.03
2023-03-13T13:53:55.831Z,5.55
2023-03-13T13:54:58.758Z,5.58
2023-03-13T13:56:03.446Z,5.67
2023-03-13T13:57:20.038Z,4.82
2023-03-13T13:58:25.636Z,4.85
2023-03-13T13:59:36.250Z,5.37
2023-03-13T14:00:44.947Z,5.48
2023-03-13T14:01:49.194Z,5.52
2023-03-13T14:02:56.546Z,5.88
2023-03-13T14:04:28.886Z,5.82
2023-03-13T14:05:32.527Z,6.17
2023-03-13T14:06:36.197Z,6.47
2023-03-13T14:07:41.000Z,6.42
2023-03-13T14:08:45.100Z,6.78
2023-03-13T14:09:58.494Z,6.52
2023-03-13T14:11:24.098Z,7.47
2023-03-13T14:12:31.581Z,7.80
2023-03-13T14:13:33.560Z,6.73
2023-03-13T14:14:35.523Z,6.73
2023-03-13T14:15:37.549Z,6.77
2023-03-13T14:16:39.848Z,6.63
2023-03-13T14:18:09.267Z,6.62
2023-03-13T14:19:30.625Z,6.78
2023-03-13T14:20:35.357Z,7.00
2023-03-13T14:21:37.144Z,6.42
2023-03-13T14:22:47.015Z,7.03
2023-03-13T14:23:49.137Z,6.82
2023-03-13T14:24:58.685Z,7.00